sensor_id;sensor_type;location;lat;lon;timestamp;P1;durP1;ratioP1;P2;durP2;ratioP2
34200;SDS011;20469;55.638;37.670;2024-01-15T00:00:29;13.30;;;8.20;;
34200;SDS011;20469;55.638;37.670;2024-01-15T00:02:57;14.57;;;8.17;;
34200;SDS011;20469;55.638;37.670;2024-01-15T00:05:25;14.33;;;7.90;;
34200;SDS011;20469;55.638;37.670;2024-01-15T00:07:53;16.27;;;8.27;;
34200;SDS011;20469;55.638;37.670;2024-01-15T00:10:22;12.73;;;6.70;;
34200;SDS011;20469;55.638;37.670;2024-01-15T00:12:50;11.03;;;6.23;;
34200;SDS011;20469;55.638;37.670;2024-01-15T00:15:18;12.67;;;7.33;;
34200;SDS011;20469;55.638;37.670;2024-01-15T00:17:46;11.87;;;7.87;;
34200;SDS011;20469;55.638;37.670;2024-01-15T00:20:14;12.13;;;8.10;;
34200;SDS011;20469;55.638;37.670;2024-01-15T00:22:42;13.80;;;8.37;;
34200;SDS011;20469;55.638;37.670;2024-01-15T00:25:10;12.30;;;7.80;;
34200;SDS011;20469;55.638;37.670;2024-01-15T00:27:38;14.17;;;8.10;;
34200;SDS011;20469;55.638;37.670;2024-01-15T00:30:06;14.90;;;8.33;;
34200;SDS011;20469;55.638;37.670;2024-01-15T00:32:34;13.33;;;7.47;;
34200;SDS011;20469;55.638;37.670;2024-01-15T00:35:02;15.70;;;9.30;;
34200;SDS011;20469;55.638;37.670;2024-01-15T00:37:30;16.13;;;9.10;;
34200;SDS011;20469;55.638;37.670;2024-01-15T00:39:59;13.60;;;8.77;;
34200;SDS011;20469;55.638;37.670;2024-01-15T00:42:29;16.27;;;8.63;;
34200;SDS011;20469;55.638;37.670;2024-01-15T00:44:57;17.20;;;9.53;;
34200;SDS011;20469;55.638;37.670;2024-01-15T00:47:24;11.27;;;6.80;;
34200;SDS011;20469;55.638;37.670;2024-01-15T00:49:52;15.63;;;8.33;;
34200;SDS011;20469;55.638;37.670;2024-01-15T00:52:20;16.03;;;8.87;;
34200;SDS011;20469;55.638;37.670;2024-01-15T00:54:49;14.57;;;8.43;;
34200;SDS011;20469;55.638;37.670;2024-01-15T00:57:17;14.07;;;8.83;;
34200;SDS011;20469;55.638;37.670;2024-01-15T00:59:46;13.70;;;8.27;;
34200;SDS011;20469;55.638;37.670;2024-01-15T01:02:15;15.53;;;9.63;;
34200;SDS011;20469;55.638;37.670;2024-01-15T01:04:42;14.27;;;8.67;;
34200;SDS011;20469;55.638;37.670;2024-01-15T01:07:10;13.00;;;8.53;;
34200;SDS011;20469;55.638;37.670;2024-01-15T01:09:39;18.03;;;9.23;;
34200;SDS011;20469;55.638;37.670;2024-01-15T01:12:09;16.17;;;10.17;;
34200;SDS011;20469;55.638;37.670;2024-01-15T01:14:37;15.80;;;9.33;;
34200;SDS011;20469;55.638;37.670;2024-01-15T01:17:05;18.30;;;10.10;;
34200;SDS011;20469;55.638;37.670;2024-01-15T01:19:32;11.90;;;6.90;;
34200;SDS011;20469;55.638;37.670;2024-01-15T01:22:00;15.37;;;9.27;;
34200;SDS011;20469;55.638;37.670;2024-01-15T01:24:29;13.97;;;8.00;;
34200;SDS011;20469;55.638;37.670;2024-01-15T01:26:57;15.63;;;8.57;;
34200;SDS011;20469;55.638;37.670;2024-01-15T01:29:25;16.13;;;9.73;;
34200;SDS011;20469;55.638;37.670;2024-01-15T01:31:53;17.70;;;10.33;;
34200;SDS011;20469;55.638;37.670;2024-01-15T01:34:21;15.67;;;10.13;;
34200;SDS011;20469;55.638;37.670;2024-01-15T01:36:49;16.70;;;9.70;;
34200;SDS011;20469;55.638;37.670;2024-01-15T01:39:17;15.93;;;9.57;;
34200;SDS011;20469;55.638;37.670;2024-01-15T01:41:45;14.20;;;9.73;;
34200;SDS011;20469;55.638;37.670;2024-01-15T01:44:13;17.17;;;9.73;;
34200;SDS011;20469;55.638;37.670;2024-01-15T01:46:41;18.57;;;10.40;;
34200;SDS011;20469;55.638;37.670;2024-01-15T01:49:08;17.33;;;9.80;;
34200;SDS011;20469;55.638;37.670;2024-01-15T01:51:37;13.43;;;7.33;;
34200;SDS011;20469;55.638;37.670;2024-01-15T01:54:08;15.47;;;9.77;;
34200;SDS011;20469;55.638;37.670;2024-01-15T01:56:40;12.83;;;7.83;;
34200;SDS011;20469;55.638;37.670;2024-01-15T01:59:09;15.70;;;9.47;;
34200;SDS011;20469;55.638;37.670;2024-01-15T02:01:38;17.60;;;10.47;;
34200;SDS011;20469;55.638;37.670;2024-01-15T02:04:06;16.27;;;9.57;;
34200;SDS011;20469;55.638;37.670;2024-01-15T02:06:34;17.00;;;10.30;;
34200;SDS011;20469;55.638;37.670;2024-01-15T02:09:01;18.07;;;9.83;;
34200;SDS011;20469;55.638;37.670;2024-01-15T02:11:32;15.63;;;9.40;;
34200;SDS011;20469;55.638;37.670;2024-01-15T02:13:59;14.60;;;8.80;;
34200;SDS011;20469;55.638;37.670;2024-01-15T02:16:28;14.47;;;9.13;;
34200;SDS011;20469;55.638;37.670;2024-01-15T02:18:56;17.20;;;10.70;;
34200;SDS011;20469;55.638;37.670;2024-01-15T02:21:24;15.63;;;9.97;;
34200;SDS011;20469;55.638;37.670;2024-01-15T02:24:05;17.27;;;9.87;;
34200;SDS011;20469;55.638;37.670;2024-01-15T02:26:33;17.47;;;9.77;;
34200;SDS011;20469;55.638;37.670;2024-01-15T02:29:03;17.27;;;8.97;;
34200;SDS011;20469;55.638;37.670;2024-01-15T02:31:31;16.60;;;9.67;;
34200;SDS011;20469;55.638;37.670;2024-01-15T02:33:58;16.47;;;10.00;;
34200;SDS011;20469;55.638;37.670;2024-01-15T02:36:26;19.07;;;10.60;;
34200;SDS011;20469;55.638;37.670;2024-01-15T02:38:54;16.93;;;9.93;;
34200;SDS011;20469;55.638;37.670;2024-01-15T02:41:22;17.93;;;10.80;;
34200;SDS011;20469;55.638;37.670;2024-01-15T02:43:50;16.63;;;10.90;;
34200;SDS011;20469;55.638;37.670;2024-01-15T02:46:19;17.50;;;10.67;;
34200;SDS011;20469;55.638;37.670;2024-01-15T02:48:47;17.43;;;10.80;;
34200;SDS011;20469;55.638;37.670;2024-01-15T02:51:15;16.17;;;10.03;;
34200;SDS011;20469;55.638;37.670;2024-01-15T02:53:43;16.87;;;10.53;;
34200;SDS011;20469;55.638;37.670;2024-01-15T02:56:11;18.07;;;10.47;;
34200;SDS011;20469;55.638;37.670;2024-01-15T02:58:38;15.53;;;9.57;;
34200;SDS011;20469;55.638;37.670;2024-01-15T03:01:06;21.27;;;10.33;;
34200;SDS011;20469;55.638;37.670;2024-01-15T03:03:35;17.07;;;10.50;;
34200;SDS011;20469;55.638;37.670;2024-01-15T03:06:03;19.67;;;10.90;;
34200;SDS011;20469;55.638;37.670;2024-01-15T03:08:31;20.07;;;11.67;;
34200;SDS011;20469;55.638;37.670;2024-01-15T03:10:59;18.17;;;11.03;;
34200;SDS011;20469;55.638;37.670;2024-01-15T03:13:26;18.30;;;11.30;;
34200;SDS011;20469;55.638;37.670;2024-01-15T03:15:54;20.53;;;11.53;;
34200;SDS011;20469;55.638;37.670;2024-01-15T03:18:22;18.20;;;11.37;;
34200;SDS011;20469;55.638;37.670;2024-01-15T03:20:50;19.20;;;12.20;;
34200;SDS011;20469;55.638;37.670;2024-01-15T03:23:18;17.80;;;11.27;;
34200;SDS011;20469;55.638;37.670;2024-01-15T03:25:46;18.27;;;11.60;;
34200;SDS011;20469;55.638;37.670;2024-01-15T03:28:14;18.37;;;10.77;;
34200;SDS011;20469;55.638;37.670;2024-01-15T03:30:42;18.47;;;11.43;;
34200;SDS011;20469;55.638;37.670;2024-01-15T03:33:10;17.37;;;11.33;;
34200;SDS011;20469;55.638;37.670;2024-01-15T03:35:38;18.13;;;11.87;;
34200;SDS011;20469;55.638;37.670;2024-01-15T03:38:06;18.73;;;11.33;;
34200;SDS011;20469;55.638;37.670;2024-01-15T03:40:34;15.73;;;10.63;;
34200;SDS011;20469;55.638;37.670;2024-01-15T03:43:02;21.03;;;11.60;;
34200;SDS011;20469;55.638;37.670;2024-01-15T03:45:30;18.63;;;10.90;;
34200;SDS011;20469;55.638;37.670;2024-01-15T03:47:58;19.40;;;11.40;;
34200;SDS011;20469;55.638;37.670;2024-01-15T03:50:27;19.27;;;11.97;;
34200;SDS011;20469;55.638;37.670;2024-01-15T03:52:54;19.40;;;12.33;;
34200;SDS011;20469;55.638;37.670;2024-01-15T03:55:22;16.70;;;11.13;;
34200;SDS011;20469;55.638;37.670;2024-01-15T03:57:50;21.70;;;12.27;;
34200;SDS011;20469;55.638;37.670;2024-01-15T04:00:18;19.90;;;11.67;;
34200;SDS011;20469;55.638;37.670;2024-01-15T04:02:46;20.13;;;12.13;;
34200;SDS011;20469;55.638;37.670;2024-01-15T04:05:14;19.83;;;12.37;;
34200;SDS011;20469;55.638;37.670;2024-01-15T04:07:42;17.70;;;11.83;;
34200;SDS011;20469;55.638;37.670;2024-01-15T04:10:09;19.33;;;11.27;;
34200;SDS011;20469;55.638;37.670;2024-01-15T04:12:38;19.77;;;12.07;;
34200;SDS011;20469;55.638;37.670;2024-01-15T04:15:06;19.73;;;12.13;;
34200;SDS011;20469;55.638;37.670;2024-01-15T04:17:34;18.97;;;12.30;;
34200;SDS011;20469;55.638;37.670;2024-01-15T04:20:02;20.43;;;12.03;;
34200;SDS011;20469;55.638;37.670;2024-01-15T04:22:30;20.17;;;12.17;;
34200;SDS011;20469;55.638;37.670;2024-01-15T04:25:00;21.53;;;12.70;;
34200;SDS011;20469;55.638;37.670;2024-01-15T04:27:29;23.23;;;14.20;;
34200;SDS011;20469;55.638;37.670;2024-01-15T04:29:57;20.60;;;13.23;;
34200;SDS011;20469;55.638;37.670;2024-01-15T04:32:25;23.23;;;13.93;;
34200;SDS011;20469;55.638;37.670;2024-01-15T04:34:53;22.30;;;12.93;;
34200;SDS011;20469;55.638;37.670;2024-01-15T04:37:21;22.30;;;12.93;;
34200;SDS011;20469;55.638;37.670;2024-01-15T04:39:49;24.70;;;13.23;;
34200;SDS011;20469;55.638;37.670;2024-01-15T04:42:19;27.93;;;15.10;;
34200;SDS011;20469;55.638;37.670;2024-01-15T04:44:47;23.00;;;13.87;;
34200;SDS011;20469;55.638;37.670;2024-01-15T04:47:15;20.73;;;13.43;;
34200;SDS011;20469;55.638;37.670;2024-01-15T04:49:43;21.10;;;13.00;;
34200;SDS011;20469;55.638;37.670;2024-01-15T04:52:12;19.47;;;12.07;;
34200;SDS011;20469;55.638;37.670;2024-01-15T04:54:40;20.47;;;12.03;;
34200;SDS011;20469;55.638;37.670;2024-01-15T04:57:07;20.47;;;12.83;;
34200;SDS011;20469;55.638;37.670;2024-01-15T04:59:35;20.57;;;13.43;;
34200;SDS011;20469;55.638;37.670;2024-01-15T05:02:03;20.83;;;13.00;;
34200;SDS011;20469;55.638;37.670;2024-01-15T05:04:31;22.37;;;12.93;;
34200;SDS011;20469;55.638;37.670;2024-01-15T05:06:59;20.23;;;12.47;;
34200;SDS011;20469;55.638;37.670;2024-01-15T05:09:28;21.33;;;13.47;;
34200;SDS011;20469;55.638;37.670;2024-01-15T05:11:58;22.57;;;13.97;;
34200;SDS011;20469;55.638;37.670;2024-01-15T05:14:26;23.63;;;13.83;;
34200;SDS011;20469;55.638;37.670;2024-01-15T05:16:54;24.90;;;14.03;;
34200;SDS011;20469;55.638;37.670;2024-01-15T05:19:22;20.50;;;12.90;;
34200;SDS011;20469;55.638;37.670;2024-01-15T05:21:49;23.47;;;14.67;;
34200;SDS011;20469;55.638;37.670;2024-01-15T05:24:17;21.70;;;13.23;;
34200;SDS011;20469;55.638;37.670;2024-01-15T05:26:45;24.87;;;13.87;;
34200;SDS011;20469;55.638;37.670;2024-01-15T05:29:13;21.73;;;13.70;;
34200;SDS011;20469;55.638;37.670;2024-01-15T05:31:41;22.27;;;13.97;;
34200;SDS011;20469;55.638;37.670;2024-01-15T05:34:09;25.37;;;14.77;;
34200;SDS011;20469;55.638;37.670;2024-01-15T05:36:37;21.23;;;13.27;;
34200;SDS011;20469;55.638;37.670;2024-01-15T05:39:04;23.83;;;14.87;;
34200;SDS011;20469;55.638;37.670;2024-01-15T05:41:33;22.27;;;14.13;;
34200;SDS011;20469;55.638;37.670;2024-01-15T05:44:01;22.63;;;13.87;;
34200;SDS011;20469;55.638;37.670;2024-01-15T05:46:28;22.77;;;13.77;;
34200;SDS011;20469;55.638;37.670;2024-01-15T05:48:56;25.83;;;15.00;;
34200;SDS011;20469;55.638;37.670;2024-01-15T05:51:24;21.40;;;13.90;;
34200;SDS011;20469;55.638;37.670;2024-01-15T05:53:52;25.23;;;15.13;;
34200;SDS011;20469;55.638;37.670;2024-01-15T05:56:20;23.70;;;14.87;;
34200;SDS011;20469;55.638;37.670;2024-01-15T05:58:48;21.33;;;14.17;;
34200;SDS011;20469;55.638;37.670;2024-01-15T06:01:17;20.63;;;13.50;;
34200;SDS011;20469;55.638;37.670;2024-01-15T06:03:45;23.40;;;14.50;;
34200;SDS011;20469;55.638;37.670;2024-01-15T06:06:13;22.03;;;14.23;;
34200;SDS011;20469;55.638;37.670;2024-01-15T06:08:41;23.33;;;14.13;;
34200;SDS011;20469;55.638;37.670;2024-01-15T06:11:09;24.27;;;14.43;;
34200;SDS011;20469;55.638;37.670;2024-01-15T06:13:37;23.03;;;14.43;;
34200;SDS011;20469;55.638;37.670;2024-01-15T06:16:12;23.63;;;14.13;;
34200;SDS011;20469;55.638;37.670;2024-01-15T06:18:42;25.60;;;15.60;;
34200;SDS011;20469;55.638;37.670;2024-01-15T06:21:10;28.93;;;15.20;;
34200;SDS011;20469;55.638;37.670;2024-01-15T06:23:41;21.63;;;13.93;;
34200;SDS011;20469;55.638;37.670;2024-01-15T06:26:11;23.60;;;15.07;;
34200;SDS011;20469;55.638;37.670;2024-01-15T06:28:40;24.43;;;15.17;;
34200;SDS011;20469;55.638;37.670;2024-01-15T06:31:08;22.03;;;14.10;;
34200;SDS011;20469;55.638;37.670;2024-01-15T06:33:36;21.60;;;14.90;;
34200;SDS011;20469;55.638;37.670;2024-01-15T06:36:06;23.87;;;14.33;;
34200;SDS011;20469;55.638;37.670;2024-01-15T06:38:36;36.97;;;16.97;;
34200;SDS011;20469;55.638;37.670;2024-01-15T06:41:05;22.17;;;14.63;;
34200;SDS011;20469;55.638;37.670;2024-01-15T06:43:33;25.20;;;14.93;;
34200;SDS011;20469;55.638;37.670;2024-01-15T06:46:01;22.60;;;14.60;;
34200;SDS011;20469;55.638;37.670;2024-01-15T06:48:33;23.67;;;14.73;;
34200;SDS011;20469;55.638;37.670;2024-01-15T06:51:03;25.45;;;15.48;;
34200;SDS011;20469;55.638;37.670;2024-01-15T06:53:31;23.17;;;13.27;;
34200;SDS011;20469;55.638;37.670;2024-01-15T06:55:58;21.95;;;14.70;;
34200;SDS011;20469;55.638;37.670;2024-01-15T06:58:27;22.10;;;14.20;;
34200;SDS011;20469;55.638;37.670;2024-01-15T07:00:55;24.70;;;15.43;;
34200;SDS011;20469;55.638;37.670;2024-01-15T07:03:25;22.23;;;14.55;;
34200;SDS011;20469;55.638;37.670;2024-01-15T07:05:53;22.65;;;12.88;;
34200;SDS011;20469;55.638;37.670;2024-01-15T07:08:21;31.80;;;19.60;;
34200;SDS011;20469;55.638;37.670;2024-01-15T07:10:48;24.35;;;15.68;;
34200;SDS011;20469;55.638;37.670;2024-01-15T07:13:16;28.90;;;16.38;;
34200;SDS011;20469;55.638;37.670;2024-01-15T07:15:44;23.67;;;14.23;;
34200;SDS011;20469;55.638;37.670;2024-01-15T07:18:12;24.80;;;15.50;;
34200;SDS011;20469;55.638;37.670;2024-01-15T07:20:40;19.00;;;10.98;;
34200;SDS011;20469;55.638;37.670;2024-01-15T07:23:08;23.42;;;14.27;;
34200;SDS011;20469;55.638;37.670;2024-01-15T07:25:35;21.73;;;14.63;;
34200;SDS011;20469;55.638;37.670;2024-01-15T07:28:03;19.70;;;11.60;;
34200;SDS011;20469;55.638;37.670;2024-01-15T07:30:32;23.42;;;13.82;;
34200;SDS011;20469;55.638;37.670;2024-01-15T07:33:01;21.00;;;12.55;;
34200;SDS011;20469;55.638;37.670;2024-01-15T07:35:31;23.40;;;14.75;;
34200;SDS011;20469;55.638;37.670;2024-01-15T07:37:59;26.63;;;15.60;;
34200;SDS011;20469;55.638;37.670;2024-01-15T07:40:27;16.33;;;10.02;;
34200;SDS011;20469;55.638;37.670;2024-01-15T07:42:55;24.00;;;16.13;;
34200;SDS011;20469;55.638;37.670;2024-01-15T07:45:23;22.77;;;14.77;;
34200;SDS011;20469;55.638;37.670;2024-01-15T07:47:51;25.42;;;15.55;;
34200;SDS011;20469;55.638;37.670;2024-01-15T07:50:19;23.90;;;15.02;;
34200;SDS011;20469;55.638;37.670;2024-01-15T07:52:47;24.15;;;14.27;;
34200;SDS011;20469;55.638;37.670;2024-01-15T07:55:15;23.20;;;15.30;;
34200;SDS011;20469;55.638;37.670;2024-01-15T07:57:44;22.10;;;15.50;;
34200;SDS011;20469;55.638;37.670;2024-01-15T08:00:25;22.15;;;12.80;;
34200;SDS011;20469;55.638;37.670;2024-01-15T08:02:53;26.35;;;16.15;;
34200;SDS011;20469;55.638;37.670;2024-01-15T08:05:20;23.13;;;14.48;;
34200;SDS011;20469;55.638;37.670;2024-01-15T08:07:48;25.65;;;15.75;;
34200;SDS011;20469;55.638;37.670;2024-01-15T08:10:17;21.85;;;14.23;;
34200;SDS011;20469;55.638;37.670;2024-01-15T08:12:44;20.85;;;11.90;;
34200;SDS011;20469;55.638;37.670;2024-01-15T08:15:12;16.33;;;10.68;;
34200;SDS011;20469;55.638;37.670;2024-01-15T08:17:40;22.25;;;14.18;;
34200;SDS011;20469;55.638;37.670;2024-01-15T08:20:08;26.67;;;16.25;;
34200;SDS011;20469;55.638;37.670;2024-01-15T08:22:38;20.90;;;14.30;;
34200;SDS011;20469;55.638;37.670;2024-01-15T08:25:06;22.77;;;13.07;;
34200;SDS011;20469;55.638;37.670;2024-01-15T08:27:33;26.83;;;15.85;;
34200;SDS011;20469;55.638;37.670;2024-01-15T08:30:02;24.52;;;14.90;;
34200;SDS011;20469;55.638;37.670;2024-01-15T08:32:31;24.25;;;15.65;;
34200;SDS011;20469;55.638;37.670;2024-01-15T08:34:58;25.20;;;15.75;;
34200;SDS011;20469;55.638;37.670;2024-01-15T08:37:27;18.63;;;11.95;;
34200;SDS011;20469;55.638;37.670;2024-01-15T08:39:55;24.10;;;15.07;;
34200;SDS011;20469;55.638;37.670;2024-01-15T08:42:23;26.00;;;14.88;;
34200;SDS011;20469;55.638;37.670;2024-01-15T08:44:51;20.60;;;12.38;;
34200;SDS011;20469;55.638;37.670;2024-01-15T08:47:19;20.42;;;12.60;;
34200;SDS011;20469;55.638;37.670;2024-01-15T08:49:47;22.17;;;13.07;;
34200;SDS011;20469;55.638;37.670;2024-01-15T08:52:14;21.55;;;14.13;;
34200;SDS011;20469;55.638;37.670;2024-01-15T08:54:43;26.92;;;16.15;;
34200;SDS011;20469;55.638;37.670;2024-01-15T08:57:11;25.10;;;16.08;;
34200;SDS011;20469;55.638;37.670;2024-01-15T08:59:39;18.77;;;10.93;;
34200;SDS011;20469;55.638;37.670;2024-01-15T09:02:08;15.52;;;9.90;;
34200;SDS011;20469;55.638;37.670;2024-01-15T09:04:36;23.52;;;15.15;;
34200;SDS011;20469;55.638;37.670;2024-01-15T09:07:04;20.70;;;12.45;;
34200;SDS011;20469;55.638;37.670;2024-01-15T09:09:32;23.73;;;14.68;;
34200;SDS011;20469;55.638;37.670;2024-01-15T09:12:00;25.08;;;14.70;;
34200;SDS011;20469;55.638;37.670;2024-01-15T09:14:28;24.88;;;15.52;;
34200;SDS011;20469;55.638;37.670;2024-01-15T09:17:03;26.25;;;14.68;;
34200;SDS011;20469;55.638;37.670;2024-01-15T09:19:32;23.25;;;14.77;;
34200;SDS011;20469;55.638;37.670;2024-01-15T09:22:00;20.67;;;13.70;;
34200;SDS011;20469;55.638;37.670;2024-01-15T09:24:27;23.15;;;15.48;;
34200;SDS011;20469;55.638;37.670;2024-01-15T09:26:55;21.80;;;13.95;;
34200;SDS011;20469;55.638;37.670;2024-01-15T09:29:23;18.00;;;11.00;;
34200;SDS011;20469;55.638;37.670;2024-01-15T09:31:51;25.33;;;15.63;;
34200;SDS011;20469;55.638;37.670;2024-01-15T09:34:20;23.80;;;15.48;;
34200;SDS011;20469;55.638;37.670;2024-01-15T09:36:49;17.73;;;10.65;;
34200;SDS011;20469;55.638;37.670;2024-01-15T09:39:17;24.05;;;15.23;;
34200;SDS011;20469;55.638;37.670;2024-01-15T09:41:45;23.35;;;15.32;;
34200;SDS011;20469;55.638;37.670;2024-01-15T09:44:14;22.48;;;14.35;;
34200;SDS011;20469;55.638;37.670;2024-01-15T09:46:43;22.70;;;14.52;;
34200;SDS011;20469;55.638;37.670;2024-01-15T09:49:11;19.95;;;13.98;;
34200;SDS011;20469;55.638;37.670;2024-01-15T09:51:39;18.67;;;11.52;;
34200;SDS011;20469;55.638;37.670;2024-01-15T09:54:07;21.35;;;14.27;;
34200;SDS011;20469;55.638;37.670;2024-01-15T09:56:35;20.50;;;13.90;;
34200;SDS011;20469;55.638;37.670;2024-01-15T09:59:03;21.73;;;14.48;;
34200;SDS011;20469;55.638;37.670;2024-01-15T10:01:31;19.38;;;11.35;;
34200;SDS011;20469;55.638;37.670;2024-01-15T10:03:59;22.35;;;14.05;;
34200;SDS011;20469;55.638;37.670;2024-01-15T10:06:27;22.05;;;15.05;;
34200;SDS011;20469;55.638;37.670;2024-01-15T10:08:56;22.33;;;14.80;;
34200;SDS011;20469;55.638;37.670;2024-01-15T10:11:27;22.17;;;15.18;;
34200;SDS011;20469;55.638;37.670;2024-01-15T10:13:55;22.88;;;14.25;;
34200;SDS011;20469;55.638;37.670;2024-01-15T10:16:24;19.55;;;12.50;;
34200;SDS011;20469;55.638;37.670;2024-01-15T10:18:51;18.65;;;11.68;;
34200;SDS011;20469;55.638;37.670;2024-01-15T10:21:20;23.67;;;15.30;;
34200;SDS011;20469;55.638;37.670;2024-01-15T10:23:48;20.88;;;14.48;;
34200;SDS011;20469;55.638;37.670;2024-01-15T10:26:16;21.50;;;13.65;;
34200;SDS011;20469;55.638;37.670;2024-01-15T10:28:45;23.10;;;14.85;;
34200;SDS011;20469;55.638;37.670;2024-01-15T10:31:12;22.60;;;14.80;;
34200;SDS011;20469;55.638;37.670;2024-01-15T10:33:40;21.83;;;14.77;;
34200;SDS011;20469;55.638;37.670;2024-01-15T10:36:09;22.05;;;15.20;;
34200;SDS011;20469;55.638;37.670;2024-01-15T10:38:38;19.35;;;13.43;;
34200;SDS011;20469;55.638;37.670;2024-01-15T10:41:06;19.00;;;11.52;;
34200;SDS011;20469;55.638;37.670;2024-01-15T10:43:34;24.77;;;14.27;;
34200;SDS011;20469;55.638;37.670;2024-01-15T10:46:01;18.70;;;11.63;;
34200;SDS011;20469;55.638;37.670;2024-01-15T10:48:30;21.92;;;14.77;;
34200;SDS011;20469;55.638;37.670;2024-01-15T10:50:58;16.15;;;9.80;;
34200;SDS011;20469;55.638;37.670;2024-01-15T10:53:26;21.42;;;13.23;;
34200;SDS011;20469;55.638;37.670;2024-01-15T10:55:54;20.40;;;14.35;;
34200;SDS011;20469;55.638;37.670;2024-01-15T10:58:23;17.15;;;10.90;;
34200;SDS011;20469;55.638;37.670;2024-01-15T11:00:52;22.50;;;14.68;;
34200;SDS011;20469;55.638;37.670;2024-01-15T11:03:21;20.90;;;13.00;;
34200;SDS011;20469;55.638;37.670;2024-01-15T11:05:50;20.92;;;13.55;;
34200;SDS011;20469;55.638;37.670;2024-01-15T11:08:18;23.90;;;14.65;;
34200;SDS011;20469;55.638;37.670;2024-01-15T11:10:51;20.50;;;12.30;;
34200;SDS011;20469;55.638;37.670;2024-01-15T11:13:19;21.30;;;13.68;;
34200;SDS011;20469;55.638;37.670;2024-01-15T11:16:02;20.25;;;13.65;;
34200;SDS011;20469;55.638;37.670;2024-01-15T11:18:31;18.92;;;12.10;;
34200;SDS011;20469;55.638;37.670;2024-01-15T11:23:54;17.23;;;10.93;;
34200;SDS011;20469;55.638;37.670;2024-01-15T11:26:36;21.50;;;13.98;;
34200;SDS011;20469;55.638;37.670;2024-01-15T11:34:07;17.85;;;12.82;;
34200;SDS011;20469;55.638;37.670;2024-01-15T11:41:59;22.00;;;13.13;;
34200;SDS011;20469;55.638;37.670;2024-01-15T11:44:27;19.70;;;13.30;;
34200;SDS011;20469;55.638;37.670;2024-01-15T11:46:59;18.92;;;11.13;;
34200;SDS011;20469;55.638;37.670;2024-01-15T11:52:18;19.48;;;12.85;;
34200;SDS011;20469;55.638;37.670;2024-01-15T11:54:52;19.40;;;12.55;;
34200;SDS011;20469;55.638;37.670;2024-01-15T11:57:29;17.23;;;11.00;;
34200;SDS011;20469;55.638;37.670;2024-01-15T12:00:00;14.50;;;9.20;;
34200;SDS011;20469;55.638;37.670;2024-01-15T12:02:30;19.92;;;11.05;;
34200;SDS011;20469;55.638;37.670;2024-01-15T12:04:58;21.65;;;13.90;;
34200;SDS011;20469;55.638;37.670;2024-01-15T12:07:26;22.25;;;14.15;;
34200;SDS011;20469;55.638;37.670;2024-01-15T12:09:54;9.63;;;6.47;;
34200;SDS011;20469;55.638;37.670;2024-01-15T12:13:45;18.02;;;10.77;;
34200;SDS011;20469;55.638;37.670;2024-01-15T12:15:17;21.08;;;12.85;;
34200;SDS011;20469;55.638;37.670;2024-01-15T12:17:45;16.00;;;11.27;;
34200;SDS011;20469;55.638;37.670;2024-01-15T12:20:14;20.25;;;13.20;;
34200;SDS011;20469;55.638;37.670;2024-01-15T12:22:45;16.55;;;10.55;;
34200;SDS011;20469;55.638;37.670;2024-01-15T12:25:26;20.40;;;13.27;;
34200;SDS011;20469;55.638;37.670;2024-01-15T12:27:55;19.58;;;12.95;;
34200;SDS011;20469;55.638;37.670;2024-01-15T12:30:23;21.45;;;13.23;;
34200;SDS011;20469;55.638;37.670;2024-01-15T12:32:51;21.15;;;14.30;;
34200;SDS011;20469;55.638;37.670;2024-01-15T12:35:19;16.50;;;10.63;;
34200;SDS011;20469;55.638;37.670;2024-01-15T12:37:47;18.30;;;12.43;;
34200;SDS011;20469;55.638;37.670;2024-01-15T12:40:18;17.30;;;12.43;;
34200;SDS011;20469;55.638;37.670;2024-01-15T12:42:46;21.02;;;13.13;;
34200;SDS011;20469;55.638;37.670;2024-01-15T12:45:14;14.85;;;9.10;;
34200;SDS011;20469;55.638;37.670;2024-01-15T12:47:42;20.35;;;14.48;;
34200;SDS011;20469;55.638;37.670;2024-01-15T12:50:11;23.00;;;13.85;;
34200;SDS011;20469;55.638;37.670;2024-01-15T12:52:45;15.23;;;10.30;;
34200;SDS011;20469;55.638;37.670;2024-01-15T12:55:14;18.83;;;13.27;;
34200;SDS011;20469;55.638;37.670;2024-01-15T12:57:44;13.77;;;8.48;;
34200;SDS011;20469;55.638;37.670;2024-01-15T13:00:12;19.48;;;13.13;;
34200;SDS011;20469;55.638;37.670;2024-01-15T13:02:42;22.08;;;14.82;;
34200;SDS011;20469;55.638;37.670;2024-01-15T13:05:11;20.65;;;14.68;;
34200;SDS011;20469;55.638;37.670;2024-01-15T13:07:41;21.77;;;14.07;;
34200;SDS011;20469;55.638;37.670;2024-01-15T13:10:10;16.77;;;8.77;;
34200;SDS011;20469;55.638;37.670;2024-01-15T13:12:39;19.25;;;13.23;;
34200;SDS011;20469;55.638;37.670;2024-01-15T13:15:08;18.65;;;13.23;;
34200;SDS011;20469;55.638;37.670;2024-01-15T13:17:41;21.52;;;13.02;;
34200;SDS011;20469;55.638;37.670;2024-01-15T13:20:11;20.50;;;12.20;;
34200;SDS011;20469;55.638;37.670;2024-01-15T13:22:40;19.15;;;14.13;;
34200;SDS011;20469;55.638;37.670;2024-01-15T13:25:11;19.25;;;13.52;;
34200;SDS011;20469;55.638;37.670;2024-01-15T13:27:39;21.80;;;13.40;;
34200;SDS011;20469;55.638;37.670;2024-01-15T13:30:09;20.33;;;13.20;;
34200;SDS011;20469;55.638;37.670;2024-01-15T13:32:39;19.90;;;13.85;;
34200;SDS011;20469;55.638;37.670;2024-01-15T13:35:08;21.95;;;14.07;;
34200;SDS011;20469;55.638;37.670;2024-01-15T13:37:40;26.27;;;14.70;;
34200;SDS011;20469;55.638;37.670;2024-01-15T13:40:08;20.20;;;13.43;;
34200;SDS011;20469;55.638;37.670;2024-01-15T13:42:36;25.85;;;16.95;;
34200;SDS011;20469;55.638;37.670;2024-01-15T13:45:05;21.42;;;13.77;;
34200;SDS011;20469;55.638;37.670;2024-01-15T13:47:34;15.60;;;9.77;;
34200;SDS011;20469;55.638;37.670;2024-01-15T13:50:04;20.15;;;14.02;;
34200;SDS011;20469;55.638;37.670;2024-01-15T13:52:32;18.48;;;12.70;;
34200;SDS011;20469;55.638;37.670;2024-01-15T13:55:00;19.88;;;13.68;;
34200;SDS011;20469;55.638;37.670;2024-01-15T13:57:29;20.05;;;13.35;;
34200;SDS011;20469;55.638;37.670;2024-01-15T13:59:57;21.60;;;14.70;;
34200;SDS011;20469;55.638;37.670;2024-01-15T14:02:25;21.10;;;13.82;;
34200;SDS011;20469;55.638;37.670;2024-01-15T14:04:53;24.60;;;14.90;;
34200;SDS011;20469;55.638;37.670;2024-01-15T14:07:21;25.27;;;15.23;;
34200;SDS011;20469;55.638;37.670;2024-01-15T14:09:49;18.00;;;12.98;;
34200;SDS011;20469;55.638;37.670;2024-01-15T14:12:17;20.95;;;14.77;;
34200;SDS011;20469;55.638;37.670;2024-01-15T14:14:45;21.73;;;14.70;;
34200;SDS011;20469;55.638;37.670;2024-01-15T14:17:14;20.77;;;14.40;;
34200;SDS011;20469;55.638;37.670;2024-01-15T14:19:42;22.33;;;14.77;;
34200;SDS011;20469;55.638;37.670;2024-01-15T14:22:10;21.48;;;14.77;;
34200;SDS011;20469;55.638;37.670;2024-01-15T14:24:38;21.73;;;14.57;;
34200;SDS011;20469;55.638;37.670;2024-01-15T14:27:06;23.05;;;15.23;;
34200;SDS011;20469;55.638;37.670;2024-01-15T14:29:37;24.05;;;15.70;;
34200;SDS011;20469;55.638;37.670;2024-01-15T14:32:05;22.42;;;15.13;;
34200;SDS011;20469;55.638;37.670;2024-01-15T14:34:33;21.15;;;14.30;;